sensor_id;sensor_type;location;lat;lon;timestamp;P1;durP1;ratioP1;P2;durP2;ratioP2
11173;SDS011;5643;50.856;12.088;2022-12-18T00:02:18;16.33;;;12.13;;
11173;SDS011;5643;50.856;12.088;2022-12-18T00:04:46;20.57;;;13.77;;
11173;SDS011;5643;50.856;12.088;2022-12-18T00:07:17;17.70;;;12.50;;
11173;SDS011;5643;50.856;12.088;2022-12-18T00:09:45;17.67;;;12.50;;
11173;SDS011;5643;50.856;12.088;2022-12-18T00:12:13;17.67;;;12.77;;
11173;SDS011;5643;50.856;12.088;2022-12-18T00:14:40;17.73;;;12.53;;
11173;SDS011;5643;50.856;12.088;2022-12-18T00:17:07;18.67;;;12.90;;
11173;SDS011;5643;50.856;12.088;2022-12-18T00:19:35;16.00;;;12.30;;
11173;SDS011;5643;50.856;12.088;2022-12-18T00:22:02;18.93;;;13.30;;
11173;SDS011;5643;50.856;12.088;2022-12-18T00:24:32;18.27;;;12.20;;
11173;SDS011;5643;50.856;12.088;2022-12-18T00:26:59;18.77;;;12.70;;
11173;SDS011;5643;50.856;12.088;2022-12-18T00:29:26;18.57;;;12.50;;
11173;SDS011;5643;50.856;12.088;2022-12-18T00:31:53;18.40;;;13.23;;
11173;SDS011;5643;50.856;12.088;2022-12-18T00:34:20;17.57;;;12.63;;
11173;SDS011;5643;50.856;12.088;2022-12-18T00:36:48;16.83;;;12.10;;
11173;SDS011;5643;50.856;12.088;2022-12-18T00:39:15;17.83;;;12.27;;
11173;SDS011;5643;50.856;12.088;2022-12-18T00:41:44;15.27;;;11.77;;
11173;SDS011;5643;50.856;12.088;2022-12-18T00:44:29;19.07;;;12.10;;
11173;SDS011;5643;50.856;12.088;2022-12-18T00:46:56;20.17;;;12.70;;
11173;SDS011;5643;50.856;12.088;2022-12-18T00:49:24;16.13;;;12.07;;
11173;SDS011;5643;50.856;12.088;2022-12-18T00:51:51;16.70;;;12.27;;
11173;SDS011;5643;50.856;12.088;2022-12-18T00:54:18;19.17;;;13.43;;
11173;SDS011;5643;50.856;12.088;2022-12-18T00:56:47;15.70;;;11.43;;
11173;SDS011;5643;50.856;12.088;2022-12-18T00:59:14;18.50;;;12.20;;
11173;SDS011;5643;50.856;12.088;2022-12-18T01:01:42;16.27;;;12.50;;
11173;SDS011;5643;50.856;12.088;2022-12-18T01:04:10;17.20;;;12.40;;
11173;SDS011;5643;50.856;12.088;2022-12-18T01:06:37;20.67;;;13.00;;
11173;SDS011;5643;50.856;12.088;2022-12-18T01:09:04;18.03;;;12.30;;
11173;SDS011;5643;50.856;12.088;2022-12-18T01:11:32;18.30;;;12.53;;
11173;SDS011;5643;50.856;12.088;2022-12-18T01:14:02;16.27;;;11.50;;
11173;SDS011;5643;50.856;12.088;2022-12-18T01:16:29;15.57;;;10.90;;
11173;SDS011;5643;50.856;12.088;2022-12-18T01:18:57;18.40;;;12.37;;
11173;SDS011;5643;50.856;12.088;2022-12-18T01:21:24;15.77;;;11.23;;
11173;SDS011;5643;50.856;12.088;2022-12-18T01:23:54;17.67;;;11.80;;
11173;SDS011;5643;50.856;12.088;2022-12-18T01:26:21;17.60;;;11.67;;
11173;SDS011;5643;50.856;12.088;2022-12-18T01:28:48;16.57;;;11.80;;
11173;SDS011;5643;50.856;12.088;2022-12-18T01:31:18;17.27;;;11.83;;
11173;SDS011;5643;50.856;12.088;2022-12-18T01:33:49;17.93;;;11.93;;
11173;SDS011;5643;50.856;12.088;2022-12-18T01:36:18;18.43;;;12.03;;
11173;SDS011;5643;50.856;12.088;2022-12-18T01:38:46;18.27;;;12.00;;
11173;SDS011;5643;50.856;12.088;2022-12-18T01:41:14;16.13;;;11.37;;
11173;SDS011;5643;50.856;12.088;2022-12-18T01:43:43;17.63;;;12.63;;
11173;SDS011;5643;50.856;12.088;2022-12-18T01:46:11;17.43;;;11.00;;
11173;SDS011;5643;50.856;12.088;2022-12-18T01:48:39;15.40;;;10.53;;
11173;SDS011;5643;50.856;12.088;2022-12-18T01:51:08;17.43;;;11.20;;
11173;SDS011;5643;50.856;12.088;2022-12-18T01:53:36;16.57;;;11.27;;
11173;SDS011;5643;50.856;12.088;2022-12-18T01:56:04;16.13;;;11.13;;
11173;SDS011;5643;50.856;12.088;2022-12-18T01:58:32;15.47;;;11.03;;
11173;SDS011;5643;50.856;12.088;2022-12-18T02:01:01;16.17;;;10.97;;
11173;SDS011;5643;50.856;12.088;2022-12-18T02:03:29;15.07;;;10.10;;
11173;SDS011;5643;50.856;12.088;2022-12-18T02:05:59;16.53;;;11.20;;
11173;SDS011;5643;50.856;12.088;2022-12-18T02:08:29;15.27;;;10.83;;
11173;SDS011;5643;50.856;12.088;2022-12-18T02:11:00;15.03;;;10.30;;
11173;SDS011;5643;50.856;12.088;2022-12-18T02:13:30;14.57;;;9.97;;
11173;SDS011;5643;50.856;12.088;2022-12-18T02:15:59;16.27;;;11.40;;
11173;SDS011;5643;50.856;12.088;2022-12-18T02:18:30;14.33;;;10.37;;
11173;SDS011;5643;50.856;12.088;2022-12-18T02:21:00;16.17;;;11.17;;
11173;SDS011;5643;50.856;12.088;2022-12-18T02:23:38;16.80;;;10.23;;
11173;SDS011;5643;50.856;12.088;2022-12-18T02:26:13;15.53;;;10.47;;
11173;SDS011;5643;50.856;12.088;2022-12-18T02:28:41;15.90;;;10.43;;
11173;SDS011;5643;50.856;12.088;2022-12-18T02:31:10;15.27;;;10.73;;
11173;SDS011;5643;50.856;12.088;2022-12-18T02:33:38;14.60;;;10.60;;
11173;SDS011;5643;50.856;12.088;2022-12-18T02:36:07;16.27;;;10.50;;
11173;SDS011;5643;50.856;12.088;2022-12-18T02:38:35;15.03;;;10.10;;
11173;SDS011;5643;50.856;12.088;2022-12-18T02:41:03;15.00;;;10.50;;
11173;SDS011;5643;50.856;12.088;2022-12-18T02:43:32;14.17;;;10.07;;
11173;SDS011;5643;50.856;12.088;2022-12-18T02:46:00;14.20;;;10.30;;
11173;SDS011;5643;50.856;12.088;2022-12-18T02:48:29;15.53;;;9.90;;
11173;SDS011;5643;50.856;12.088;2022-12-18T02:50:58;16.07;;;11.30;;
11173;SDS011;5643;50.856;12.088;2022-12-18T02:53:30;14.03;;;10.30;;
11173;SDS011;5643;50.856;12.088;2022-12-18T02:56:00;16.30;;;10.27;;
11173;SDS011;5643;50.856;12.088;2022-12-18T02:58:30;14.10;;;10.40;;
11173;SDS011;5643;50.856;12.088;2022-12-18T03:01:03;13.83;;;9.60;;
11173;SDS011;5643;50.856;12.088;2022-12-18T03:03:35;16.20;;;11.00;;
11173;SDS011;5643;50.856;12.088;2022-12-18T03:06:04;16.63;;;10.40;;
11173;SDS011;5643;50.856;12.088;2022-12-18T03:08:33;15.63;;;10.97;;
11173;SDS011;5643;50.856;12.088;2022-12-18T03:11:06;15.80;;;10.37;;
11173;SDS011;5643;50.856;12.088;2022-12-18T03:13:36;15.70;;;10.90;;
11173;SDS011;5643;50.856;12.088;2022-12-18T03:16:05;16.50;;;11.10;;
11173;SDS011;5643;50.856;12.088;2022-12-18T03:18:33;15.20;;;10.13;;
11173;SDS011;5643;50.856;12.088;2022-12-18T03:21:03;14.50;;;10.10;;
11173;SDS011;5643;50.856;12.088;2022-12-18T03:23:32;13.90;;;10.00;;
11173;SDS011;5643;50.856;12.088;2022-12-18T03:26:01;13.50;;;9.67;;
11173;SDS011;5643;50.856;12.088;2022-12-18T03:28:30;14.87;;;10.10;;
11173;SDS011;5643;50.856;12.088;2022-12-18T03:30:58;16.67;;;10.70;;
11173;SDS011;5643;50.856;12.088;2022-12-18T03:33:29;14.47;;;10.03;;
11173;SDS011;5643;50.856;12.088;2022-12-18T03:35:58;14.20;;;10.07;;
11173;SDS011;5643;50.856;12.088;2022-12-18T03:38:25;14.67;;;10.47;;
11173;SDS011;5643;50.856;12.088;2022-12-18T03:40:53;15.67;;;9.67;;
11173;SDS011;5643;50.856;12.088;2022-12-18T03:43:25;13.97;;;9.83;;
11173;SDS011;5643;50.856;12.088;2022-12-18T03:45:59;15.73;;;10.13;;
11173;SDS011;5643;50.856;12.088;2022-12-18T03:48:31;14.63;;;9.97;;
11173;SDS011;5643;50.856;12.088;2022-12-18T03:51:01;15.10;;;9.67;;
11173;SDS011;5643;50.856;12.088;2022-12-18T03:53:32;13.63;;;9.43;;
11173;SDS011;5643;50.856;12.088;2022-12-18T03:56:01;14.93;;;9.73;;
11173;SDS011;5643;50.856;12.088;2022-12-18T03:58:29;15.80;;;9.97;;
11173;SDS011;5643;50.856;12.088;2022-12-18T04:01:00;15.27;;;9.27;;
11173;SDS011;5643;50.856;12.088;2022-12-18T04:03:28;13.27;;;9.87;;
11173;SDS011;5643;50.856;12.088;2022-12-18T04:06:01;12.43;;;9.17;;
11173;SDS011;5643;50.856;12.088;2022-12-18T04:08:29;14.07;;;9.40;;
11173;SDS011;5643;50.856;12.088;2022-12-18T04:10:56;12.53;;;8.60;;
11173;SDS011;5643;50.856;12.088;2022-12-18T04:13:27;13.53;;;9.30;;
11173;SDS011;5643;50.856;12.088;2022-12-18T04:15:54;12.17;;;8.63;;
11173;SDS011;5643;50.856;12.088;2022-12-18T04:18:21;11.40;;;8.23;;
11173;SDS011;5643;50.856;12.088;2022-12-18T04:20:48;13.20;;;8.60;;
11173;SDS011;5643;50.856;12.088;2022-12-18T04:23:17;13.27;;;8.80;;
11173;SDS011;5643;50.856;12.088;2022-12-18T04:25:45;11.43;;;8.20;;
11173;SDS011;5643;50.856;12.088;2022-12-18T04:28:12;12.63;;;8.97;;
11173;SDS011;5643;50.856;12.088;2022-12-18T04:30:39;14.20;;;9.10;;
11173;SDS011;5643;50.856;12.088;2022-12-18T04:33:08;12.63;;;9.00;;
11173;SDS011;5643;50.856;12.088;2022-12-18T04:35:35;11.70;;;8.23;;
11173;SDS011;5643;50.856;12.088;2022-12-18T04:38:02;13.17;;;9.13;;
11173;SDS011;5643;50.856;12.088;2022-12-18T04:40:31;14.07;;;9.00;;
11173;SDS011;5643;50.856;12.088;2022-12-18T04:42:58;12.53;;;8.97;;
11173;SDS011;5643;50.856;12.088;2022-12-18T04:45:25;11.77;;;8.70;;
11173;SDS011;5643;50.856;12.088;2022-12-18T04:47:53;12.90;;;8.90;;
11173;SDS011;5643;50.856;12.088;2022-12-18T04:50:20;13.07;;;8.77;;
11173;SDS011;5643;50.856;12.088;2022-12-18T04:52:47;12.87;;;8.80;;
11173;SDS011;5643;50.856;12.088;2022-12-18T04:55:14;13.37;;;8.73;;
11173;SDS011;5643;50.856;12.088;2022-12-18T04:57:43;10.87;;;8.23;;
11173;SDS011;5643;50.856;12.088;2022-12-18T05:00:11;11.03;;;8.30;;
11173;SDS011;5643;50.856;12.088;2022-12-18T05:02:39;11.50;;;7.70;;
11173;SDS011;5643;50.856;12.088;2022-12-18T05:05:07;13.53;;;8.73;;
11173;SDS011;5643;50.856;12.088;2022-12-18T05:07:34;13.93;;;9.03;;
11173;SDS011;5643;50.856;12.088;2022-12-18T05:10:02;12.73;;;8.20;;
11173;SDS011;5643;50.856;12.088;2022-12-18T05:12:30;10.87;;;7.83;;
11173;SDS011;5643;50.856;12.088;2022-12-18T05:14:59;12.77;;;8.70;;
11173;SDS011;5643;50.856;12.088;2022-12-18T05:17:25;14.03;;;8.67;;
11173;SDS011;5643;50.856;12.088;2022-12-18T05:19:52;11.87;;;8.40;;
11173;SDS011;5643;50.856;12.088;2022-12-18T05:22:20;11.37;;;8.10;;
11173;SDS011;5643;50.856;12.088;2022-12-18T05:24:47;12.43;;;8.13;;
11173;SDS011;5643;50.856;12.088;2022-12-18T05:27:14;10.17;;;7.53;;
11173;SDS011;5643;50.856;12.088;2022-12-18T05:29:42;12.67;;;8.00;;
11173;SDS011;5643;50.856;12.088;2022-12-18T05:32:11;13.50;;;8.60;;
11173;SDS011;5643;50.856;12.088;2022-12-18T05:34:38;11.13;;;8.37;;
11173;SDS011;5643;50.856;12.088;2022-12-18T05:37:05;12.30;;;8.33;;
11173;SDS011;5643;50.856;12.088;2022-12-18T05:39:32;12.57;;;8.63;;
11173;SDS011;5643;50.856;12.088;2022-12-18T05:41:59;12.47;;;8.20;;
11173;SDS011;5643;50.856;12.088;2022-12-18T05:44:26;13.07;;;8.17;;
11173;SDS011;5643;50.856;12.088;2022-12-18T05:46:53;10.57;;;7.53;;
11173;SDS011;5643;50.856;12.088;2022-12-18T05:49:23;11.53;;;8.27;;
11173;SDS011;5643;50.856;12.088;2022-12-18T05:51:49;10.90;;;7.67;;
11173;SDS011;5643;50.856;12.088;2022-12-18T05:54:17;11.30;;;7.93;;
11173;SDS011;5643;50.856;12.088;2022-12-18T05:56:44;11.50;;;7.57;;
11173;SDS011;5643;50.856;12.088;2022-12-18T05:59:11;11.20;;;8.00;;
11173;SDS011;5643;50.856;12.088;2022-12-18T06:01:38;12.10;;;7.90;;
11173;SDS011;5643;50.856;12.088;2022-12-18T06:04:06;12.27;;;7.50;;
11173;SDS011;5643;50.856;12.088;2022-12-18T06:06:34;11.50;;;7.90;;
11173;SDS011;5643;50.856;12.088;2022-12-18T06:09:02;10.87;;;7.67;;
11173;SDS011;5643;50.856;12.088;2022-12-18T06:11:34;11.27;;;8.17;;
11173;SDS011;5643;50.856;12.088;2022-12-18T06:14:02;11.70;;;7.73;;
11173;SDS011;5643;50.856;12.088;2022-12-18T06:16:30;11.33;;;8.13;;
11173;SDS011;5643;50.856;12.088;2022-12-18T06:18:58;11.97;;;7.97;;
11173;SDS011;5643;50.856;12.088;2022-12-18T06:21:26;10.27;;;7.37;;
11173;SDS011;5643;50.856;12.088;2022-12-18T06:23:54;11.33;;;8.10;;
11173;SDS011;5643;50.856;12.088;2022-12-18T06:26:21;11.80;;;7.70;;
11173;SDS011;5643;50.856;12.088;2022-12-18T06:28:50;11.33;;;7.70;;
11173;SDS011;5643;50.856;12.088;2022-12-18T06:31:17;9.60;;;6.80;;
11173;SDS011;5643;50.856;12.088;2022-12-18T06:33:44;10.17;;;6.87;;
11173;SDS011;5643;50.856;12.088;2022-12-18T06:36:12;10.37;;;7.33;;
11173;SDS011;5643;50.856;12.088;2022-12-18T06:38:40;10.37;;;7.27;;
11173;SDS011;5643;50.856;12.088;2022-12-18T06:41:09;10.40;;;7.30;;
11173;SDS011;5643;50.856;12.088;2022-12-18T06:43:37;11.70;;;7.00;;
11173;SDS011;5643;50.856;12.088;2022-12-18T06:46:04;11.17;;;7.13;;
11173;SDS011;5643;50.856;12.088;2022-12-18T06:48:31;11.10;;;7.57;;
11173;SDS011;5643;50.856;12.088;2022-12-18T06:50:59;10.67;;;6.80;;
11173;SDS011;5643;50.856;12.088;2022-12-18T06:53:26;10.27;;;7.43;;
11173;SDS011;5643;50.856;12.088;2022-12-18T06:55:58;11.30;;;7.47;;
11173;SDS011;5643;50.856;12.088;2022-12-18T06:58:27;8.50;;;6.00;;
11173;SDS011;5643;50.856;12.088;2022-12-18T07:00:58;10.83;;;7.07;;
11173;SDS011;5643;50.856;12.088;2022-12-18T07:03:25;8.33;;;6.37;;
11173;SDS011;5643;50.856;12.088;2022-12-18T07:05:53;9.20;;;6.43;;
11173;SDS011;5643;50.856;12.088;2022-12-18T07:08:20;10.43;;;6.50;;
11173;SDS011;5643;50.856;12.088;2022-12-18T07:10:48;8.60;;;6.00;;
11173;SDS011;5643;50.856;12.088;2022-12-18T07:13:16;10.70;;;6.57;;
11173;SDS011;5643;50.856;12.088;2022-12-18T07:15:45;9.50;;;6.93;;
11173;SDS011;5643;50.856;12.088;2022-12-18T07:18:12;7.67;;;6.43;;
11173;SDS011;5643;50.856;12.088;2022-12-18T07:20:39;10.83;;;7.03;;
11173;SDS011;5643;50.856;12.088;2022-12-18T07:23:06;10.63;;;7.50;;
11173;SDS011;5643;50.856;12.088;2022-12-18T07:25:33;11.13;;;7.57;;
11173;SDS011;5643;50.856;12.088;2022-12-18T07:28:01;11.50;;;8.00;;
11173;SDS011;5643;50.856;12.088;2022-12-18T07:30:28;9.73;;;7.67;;
11173;SDS011;5643;50.856;12.088;2022-12-18T07:32:56;11.77;;;7.50;;
11173;SDS011;5643;50.856;12.088;2022-12-18T07:35:24;10.47;;;7.57;;
11173;SDS011;5643;50.856;12.088;2022-12-18T07:37:51;10.47;;;7.50;;
11173;SDS011;5643;50.856;12.088;2022-12-18T07:40:19;10.67;;;7.00;;
11173;SDS011;5643;50.856;12.088;2022-12-18T07:42:46;11.10;;;7.63;;
11173;SDS011;5643;50.856;12.088;2022-12-18T07:45:12;11.00;;;7.40;;
11173;SDS011;5643;50.856;12.088;2022-12-18T07:47:39;11.60;;;7.47;;
11173;SDS011;5643;50.856;12.088;2022-12-18T07:50:11;10.13;;;6.93;;
11173;SDS011;5643;50.856;12.088;2022-12-18T07:52:39;10.10;;;6.83;;
11173;SDS011;5643;50.856;12.088;2022-12-18T07:55:06;12.00;;;7.60;;
11173;SDS011;5643;50.856;12.088;2022-12-18T07:57:33;10.30;;;7.60;;
11173;SDS011;5643;50.856;12.088;2022-12-18T08:00:01;9.97;;;6.70;;
11173;SDS011;5643;50.856;12.088;2022-12-18T08:02:30;10.40;;;7.40;;
11173;SDS011;5643;50.856;12.088;2022-12-18T08:04:57;9.50;;;6.77;;
11173;SDS011;5643;50.856;12.088;2022-12-18T08:07:28;9.47;;;7.00;;
11173;SDS011;5643;50.856;12.088;2022-12-18T08:09:55;11.57;;;8.43;;
11173;SDS011;5643;50.856;12.088;2022-12-18T08:12:22;11.10;;;8.17;;
11173;SDS011;5643;50.856;12.088;2022-12-18T08:14:49;11.30;;;8.53;;
11173;SDS011;5643;50.856;12.088;2022-12-18T08:17:16;11.80;;;8.23;;
11173;SDS011;5643;50.856;12.088;2022-12-18T08:19:43;12.87;;;8.73;;
11173;SDS011;5643;50.856;12.088;2022-12-18T08:22:10;13.13;;;8.83;;
11173;SDS011;5643;50.856;12.088;2022-12-18T08:24:39;12.23;;;8.70;;
11173;SDS011;5643;50.856;12.088;2022-12-18T08:27:06;12.10;;;8.80;;
11173;SDS011;5643;50.856;12.088;2022-12-18T08:29:34;13.33;;;9.30;;
11173;SDS011;5643;50.856;12.088;2022-12-18T08:32:01;12.33;;;8.70;;
11173;SDS011;5643;50.856;12.088;2022-12-18T08:34:29;10.30;;;8.37;;
11173;SDS011;5643;50.856;12.088;2022-12-18T08:36:56;12.73;;;9.10;;
11173;SDS011;5643;50.856;12.088;2022-12-18T08:39:23;15.50;;;9.53;;
11173;SDS011;5643;50.856;12.088;2022-12-18T08:41:52;12.87;;;8.73;;
11173;SDS011;5643;50.856;12.088;2022-12-18T08:44:33;14.77;;;9.67;;
11173;SDS011;5643;50.856;12.088;2022-12-18T08:47:07;14.93;;;9.87;;
11173;SDS011;5643;50.856;12.088;2022-12-18T08:49:34;13.53;;;10.20;;
11173;SDS011;5643;50.856;12.088;2022-12-18T08:52:02;15.00;;;11.00;;
11173;SDS011;5643;50.856;12.088;2022-12-18T08:54:29;15.73;;;10.80;;
11173;SDS011;5643;50.856;12.088;2022-12-18T08:56:58;16.30;;;11.43;;
11173;SDS011;5643;50.856;12.088;2022-12-18T08:59:28;15.17;;;11.33;;
11173;SDS011;5643;50.856;12.088;2022-12-18T09:01:56;17.47;;;12.67;;
11173;SDS011;5643;50.856;12.088;2022-12-18T09:04:22;15.93;;;11.37;;
11173;SDS011;5643;50.856;12.088;2022-12-18T09:06:50;16.27;;;11.63;;
11173;SDS011;5643;50.856;12.088;2022-12-18T09:09:17;15.73;;;11.47;;
11173;SDS011;5643;50.856;12.088;2022-12-18T09:11:44;14.97;;;10.70;;
11173;SDS011;5643;50.856;12.088;2022-12-18T09:14:13;14.20;;;10.83;;
11173;SDS011;5643;50.856;12.088;2022-12-18T09:16:40;14.90;;;10.63;;
11173;SDS011;5643;50.856;12.088;2022-12-18T09:19:09;15.80;;;11.33;;
11173;SDS011;5643;50.856;12.088;2022-12-18T09:21:36;14.27;;;11.10;;
11173;SDS011;5643;50.856;12.088;2022-12-18T09:24:05;14.10;;;10.90;;
11173;SDS011;5643;50.856;12.088;2022-12-18T09:26:34;14.37;;;10.30;;
11173;SDS011;5643;50.856;12.088;2022-12-18T09:29:01;14.20;;;10.73;;
11173;SDS011;5643;50.856;12.088;2022-12-18T09:31:31;13.63;;;10.27;;
11173;SDS011;5643;50.856;12.088;2022-12-18T09:33:58;12.87;;;10.23;;
11173;SDS011;5643;50.856;12.088;2022-12-18T09:36:26;12.20;;;10.13;;
11173;SDS011;5643;50.856;12.088;2022-12-18T09:38:53;13.23;;;10.70;;
11173;SDS011;5643;50.856;12.088;2022-12-18T09:41:32;13.20;;;10.37;;
11173;SDS011;5643;50.856;12.088;2022-12-18T09:44:00;12.00;;;9.53;;
11173;SDS011;5643;50.856;12.088;2022-12-18T09:46:29;13.20;;;9.93;;
11173;SDS011;5643;50.856;12.088;2022-12-18T09:48:59;14.03;;;10.83;;
11173;SDS011;5643;50.856;12.088;2022-12-18T09:51:28;14.13;;;11.33;;
11173;SDS011;5643;50.856;12.088;2022-12-18T09:53:57;18.93;;;13.87;;
11173;SDS011;5643;50.856;12.088;2022-12-18T09:56:25;17.97;;;13.33;;
11173;SDS011;5643;50.856;12.088;2022-12-18T09:58:55;19.20;;;13.10;;
11173;SDS011;5643;50.856;12.088;2022-12-18T10:01:24;18.27;;;13.57;;
11173;SDS011;5643;50.856;12.088;2022-12-18T10:03:51;18.33;;;13.93;;
11173;SDS011;5643;50.856;12.088;2022-12-18T10:06:23;20.17;;;15.60;;
11173;SDS011;5643;50.856;12.088;2022-12-18T10:08:53;18.87;;;14.57;;
11173;SDS011;5643;50.856;12.088;2022-12-18T10:11:27;15.93;;;13.40;;
11173;SDS011;5643;50.856;12.088;2022-12-18T10:14:00;16.43;;;12.17;;
11173;SDS011;5643;50.856;12.088;2022-12-18T10:16:31;14.63;;;12.17;;
11173;SDS011;5643;50.856;12.088;2022-12-18T10:19:08;14.17;;;11.67;;
11173;SDS011;5643;50.856;12.088;2022-12-18T10:21:41;13.63;;;11.07;;
11173;SDS011;5643;50.856;12.088;2022-12-18T10:24:13;14.10;;;11.23;;
11173;SDS011;5643;50.856;12.088;2022-12-18T10:26:45;12.47;;;10.50;;
11173;SDS011;5643;50.856;12.088;2022-12-18T10:29:12;11.97;;;9.63;;
11173;SDS011;5643;50.856;12.088;2022-12-18T10:31:40;10.63;;;9.27;;
11173;SDS011;5643;50.856;12.088;2022-12-18T10:34:09;11.50;;;9.90;;
11173;SDS011;5643;50.856;12.088;2022-12-18T10:36:36;10.73;;;8.93;;
11173;SDS011;5643;50.856;12.088;2022-12-18T10:39:19;12.20;;;9.07;;
11173;SDS011;5643;50.856;12.088;2022-12-18T10:41:51;9.47;;;8.00;;
11173;SDS011;5643;50.856;12.088;2022-12-18T10:44:19;11.30;;;8.77;;
11173;SDS011;5643;50.856;12.088;2022-12-18T10:46:46;11.13;;;8.83;;
11173;SDS011;5643;50.856;12.088;2022-12-18T10:49:18;10.43;;;8.47;;
11173;SDS011;5643;50.856;12.088;2022-12-18T10:51:48;10.60;;;8.80;;
11173;SDS011;5643;50.856;12.088;2022-12-18T10:54:15;9.73;;;8.73;;
11173;SDS011;5643;50.856;12.088;2022-12-18T10:56:44;11.23;;;9.07;;
11173;SDS011;5643;50.856;12.088;2022-12-18T10:59:12;11.63;;;9.37;;
11173;SDS011;5643;50.856;12.088;2022-12-18T11:01:47;13.30;;;11.10;;
11173;SDS011;5643;50.856;12.088;2022-12-18T11:04:16;13.87;;;11.60;;
11173;SDS011;5643;50.856;12.088;2022-12-18T11:06:52;12.63;;;10.07;;
11173;SDS011;5643;50.856;12.088;2022-12-18T11:09:20;13.73;;;11.17;;
11173;SDS011;5643;50.856;12.088;2022-12-18T11:11:49;13.80;;;10.93;;
11173;SDS011;5643;50.856;12.088;2022-12-18T11:14:20;14.70;;;11.27;;
11173;SDS011;5643;50.856;12.088;2022-12-18T11:16:48;12.47;;;10.70;;
11173;SDS011;5643;50.856;12.088;2022-12-18T11:19:22;13.37;;;11.00;;
11173;SDS011;5643;50.856;12.088;2022-12-18T11:21:49;13.87;;;10.90;;
11173;SDS011;5643;50.856;12.088;2022-12-18T11:24:19;16.03;;;12.33;;
11173;SDS011;5643;50.856;12.088;2022-12-18T11:26:49;17.07;;;13.23;;
11173;SDS011;5643;50.856;12.088;2022-12-18T11:29:17;19.23;;;14.10;;
11173;SDS011;5643;50.856;12.088;2022-12-18T11:31:44;19.10;;;13.83;;
11173;SDS011;5643;50.856;12.088;2022-12-18T11:34:12;16.70;;;12.37;;
11173;SDS011;5643;50.856;12.088;2022-12-18T11:36:42;14.63;;;11.50;;
11173;SDS011;5643;50.856;12.088;2022-12-18T11:39:12;12.30;;;10.67;;
11173;SDS011;5643;50.856;12.088;2022-12-18T11:41:41;12.43;;;10.03;;
11173;SDS011;5643;50.856;12.088;2022-12-18T11:44:32;11.40;;;10.00;;
11173;SDS011;5643;50.856;12.088;2022-12-18T11:47:01;10.50;;;9.00;;
11173;SDS011;5643;50.856;12.088;2022-12-18T11:49:32;11.77;;;9.63;;
11173;SDS011;5643;50.856;12.088;2022-12-18T11:52:01;10.70;;;9.10;;
11173;SDS011;5643;50.856;12.088;2022-12-18T11:54:29;9.90;;;8.50;;
11173;SDS011;5643;50.856;12.088;2022-12-18T11:56:58;10.23;;;7.93;;
11173;SDS011;5643;50.856;12.088;2022-12-18T11:59:32;9.37;;;7.83;;
11173;SDS011;5643;50.856;12.088;2022-12-18T12:02:09;9.60;;;7.73;;
11173;SDS011;5643;50.856;12.088;2022-12-18T12:04:45;8.73;;;6.67;;
11173;SDS011;5643;50.856;12.088;2022-12-18T12:07:20;7.67;;;6.87;;
11173;SDS011;5643;50.856;12.088;2022-12-18T12:09:50;6.60;;;5.90;;
11173;SDS011;5643;50.856;12.088;2022-12-18T12:12:25;6.90;;;6.03;;
11173;SDS011;5643;50.856;12.088;2022-12-18T12:14:57;6.83;;;6.00;;
11173;SDS011;5643;50.856;12.088;2022-12-18T12:17:29;6.23;;;5.60;;
11173;SDS011;5643;50.856;12.088;2022-12-18T12:20:00;7.00;;;5.60;;
11173;SDS011;5643;50.856;12.088;2022-12-18T12:22:32;5.30;;;4.80;;
11173;SDS011;5643;50.856;12.088;2022-12-18T12:25:04;6.40;;;4.90;;
11173;SDS011;5643;50.856;12.088;2022-12-18T12:27:37;4.87;;;4.30;;
11173;SDS011;5643;50.856;12.088;2022-12-18T12:30:09;5.30;;;4.50;;
11173;SDS011;5643;50.856;12.088;2022-12-18T12:32:42;5.37;;;4.73;;
11173;SDS011;5643;50.856;12.088;2022-12-18T12:35:19;5.30;;;4.80;;
11173;SDS011;5643;50.856;12.088;2022-12-18T12:37:53;5.33;;;4.60;;
11173;SDS011;5643;50.856;12.088;2022-12-18T12:40:27;5.27;;;4.53;;
11173;SDS011;5643;50.856;12.088;2022-12-18T12:42:55;5.80;;;4.87;;
11173;SDS011;5643;50.856;12.088;2022-12-18T12:45:42;5.07;;;4.40;;
11173;SDS011;5643;50.856;12.088;2022-12-18T12:48:10;4.63;;;4.20;;
11173;SDS011;5643;50.856;12.088;2022-12-18T12:50:42;4.23;;;3.83;;
11173;SDS011;5643;50.856;12.088;2022-12-18T12:53:13;4.20;;;3.80;;
11173;SDS011;5643;50.856;12.088;2022-12-18T12:55:44;4.43;;;3.57;;
11173;SDS011;5643;50.856;12.088;2022-12-18T12:58:12;4.47;;;3.90;;
11173;SDS011;5643;50.856;12.088;2022-12-18T13:00:46;4.17;;;3.70;;
11173;SDS011;5643;50.856;12.088;2022-12-18T13:03:21;3.83;;;3.43;;
11173;SDS011;5643;50.856;12.088;2022-12-18T13:05:53;4.10;;;3.70;;
11173;SDS011;5643;50.856;12.088;2022-12-18T13:08:23;4.40;;;3.73;;
11173;SDS011;5643;50.856;12.088;2022-12-18T13:10:51;4.43;;;4.03;;
11173;SDS011;5643;50.856;12.088;2022-12-18T13:13:47;4.70;;;4.20;;
11173;SDS011;5643;50.856;12.088;2022-12-18T13:16:16;4.67;;;4.17;;
11173;SDS011;5643;50.856;12.088;2022-12-18T13:18:48;4.97;;;4.50;;
11173;SDS011;5643;50.856;12.088;2022-12-18T13:21:17;4.43;;;4.03;;
11173;SDS011;5643;50.856;12.088;2022-12-18T13:23:48;4.80;;;4.30;;
11173;SDS011;5643;50.856;12.088;2022-12-18T13:26:28;4.73;;;3.90;;
11173;SDS011;5643;50.856;12.088;2022-12-18T13:28:57;4.67;;;4.20;;
11173;SDS011;5643;50.856;12.088;2022-12-18T13:34:15;4.23;;;3.83;;
11173;SDS011;5643;50.856;12.088;2022-12-18T13:36:43;4.77;;;4.03;;
11173;SDS011;5643;50.856;12.088;2022-12-18T13:39:11;4.53;;;3.90;;
11173;SDS011;5643;50.856;12.088;2022-12-18T13:41:38;4.57;;;3.80;;
11173;SDS011;5643;50.856;12.088;2022-12-18T13:44:10;4.87;;;3.83;;
11173;SDS011;5643;50.856;12.088;2022-12-18T13:46:42;3.97;;;3.57;;
11173;SDS011;5643;50.856;12.088;2022-12-18T13:49:19;4.10;;;3.67;;
11173;SDS011;5643;50.856;12.088;2022-12-18T13:51:49;4.67;;;3.50;;
11173;SDS011;5643;50.856;12.088;2022-12-18T13:54:18;4.33;;;3.43;;
11173;SDS011;5643;50.856;12.088;2022-12-18T13:56:48;3.63;;;3.30;;
11173;SDS011;5643;50.856;12.088;2022-12-18T13:59:17;3.57;;;3.27;;
11173;SDS011;5643;50.856;12.088;2022-12-18T14:01:45;4.27;;;3.83;;
11173;SDS011;5643;50.856;12.088;2022-12-18T14:04:18;5.47;;;4.33;;
11173;SDS011;5643;50.856;12.088;2022-12-18T14:06:46;9.23;;;7.00;;
11173;SDS011;5643;50.856;12.088;2022-12-18T14:09:14;10.00;;;6.93;;
11173;SDS011;5643;50.856;12.088;2022-12-18T14:11:46;8.10;;;6.57;;
11173;SDS011;5643;50.856;12.088;2022-12-18T14:14:13;9.10;;;6.83;;
11173;SDS011;5643;50.856;12.088;2022-12-18T14:16:41;5.83;;;5.00;;
11173;SDS011;5643;50.856;12.088;2022-12-18T14:19:08;6.50;;;5.20;;
11173;SDS011;5643;50.856;12.088;2022-12-18T14:21:40;6.30;;;5.03;;
11173;SDS011;5643;50.856;12.088;2022-12-18T14:24:12;7.33;;;5.73;;
11173;SDS011;5643;50.856;12.088;2022-12-18T14:26:41;7.67;;;5.37;;
11173;SDS011;5643;50.856;12.088;2022-12-18T14:29:18;6.47;;;5.13;;
11173;SDS011;5643;50.856;12.088;2022-12-18T14:31:45;6.23;;;4.60;;
11173;SDS011;5643;50.856;12.088;2022-12-18T14:34:14;5.00;;;4.20;;
11173;SDS011;5643;50.856;12.088;2022-12-18T14:36:44;4.97;;;4.33;;
11173;SDS011;5643;50.856;12.088;2022-12-18T14:39:18;5.30;;;4.20;;
11173;SDS011;5643;50.856;12.088;2022-12-18T14:41:48;5.07;;;4.13;;
11173;SDS011;5643;50.856;12.088;2022-12-18T14:44:15;5.27;;;4.10;;
11173;SDS011;5643;50.856;12.088;2022-12-18T14:46:42;5.73;;;4.33;;
11173;SDS011;5643;50.856;12.088;2022-12-18T14:49:18;5.23;;;4.40;;